Time;durP1;ratioP1;P1;durP2;ratioP2;P2;SDS_P1;SDS_P2;PMS_P1;PMS_P2;Temp;Humidity;BMP_temperature;BMP_pressure;BME280_temperature;BME280_humidity;BME280_pressure;Samples;Min_cycle;Max_cycle;Signal;HPM_P1;HPM_P2
2023/01/09 00:00:07;;;;;;;6.38;3.58;;;;;;;;;;5034120;28;20254;-84
2023/01/09 00:02:33;;;;;;;6.70;3.78;;;;;;;;;;5033820;28;20140;-84
2023/01/09 00:05:00;;;;;;;7.45;4.10;;;;;;;;;;5037946;28;20128;-86
2023/01/09 00:07:26;;;;;;;6.45;3.85;;;;;;;;;;5037234;28;20165;-85
2023/01/09 00:09:53;;;;;;;6.63;3.50;;;;;;;;;;5013720;28;20556;-86
2023/01/09 00:12:19;;;;;;;5.40;3.60;;;;;;;;;;5003535;28;20060;-84
2023/01/09 00:14:46;;;;;;;7.00;3.35;;;;;;;;;;5036292;28;20046;-86
2023/01/09 00:17:12;;;;;;;6.65;3.75;;;;;;;;;;5036413;28;20065;-84
2023/01/09 00:19:39;;;;;;;7.30;3.90;;;;;;;;;;5025319;28;20057;-83
2023/01/09 00:22:08;;;;;;;6.03;3.35;;;;;;;;;;5018142;28;20121;-84
2023/01/09 00:24:35;;;;;;;5.60;3.53;;;;;;;;;;5014878;28;20114;-84
2023/01/09 00:27:01;;;;;;;7.35;3.40;;;;;;;;;;5017975;28;20435;-83
2023/01/09 00:29:28;;;;;;;7.13;3.63;;;;;;;;;;5016457;28;20073;-83
2023/01/09 00:31:54;;;;;;;5.80;3.20;;;;;;;;;;5015845;28;20049;-82
2023/01/09 00:34:21;;;;;;;6.90;3.80;;;;;;;;;;5013659;28;20053;-84
2023/01/09 00:36:47;;;;;;;6.72;3.38;;;;;;;;;;5016439;28;20052;-85
2023/01/09 00:39:14;;;;;;;5.43;2.90;;;;;;;;;;5009309;28;20054;-85
2023/01/09 00:41:45;;;;;;;5.38;3.30;;;;;;;;;;5038015;28;20061;-84
2023/01/09 00:44:14;;;;;;;6.13;3.60;;;;;;;;;;5019992;28;20041;-86
2023/01/09 00:46:44;;;;;;;6.63;3.70;;;;;;;;;;5048772;28;20057;-87
2023/01/09 00:49:11;;;;;;;7.05;3.85;;;;;;;;;;5041609;28;20238;-85
2023/01/09 00:51:38;;;;;;;5.53;3.28;;;;;;;;;;5038535;28;20049;-85
2023/01/09 00:54:05;;;;;;;5.85;3.10;;;;;;;;;;5021126;28;20068;-81
2023/01/09 00:56:33;;;;;;;5.78;2.92;;;;;;;;;;5046370;28;20076;-86
2023/01/09 00:58:59;;;;;;;5.85;2.92;;;;;;;;;;5051133;28;20037;-82
2023/01/09 01:01:26;;;;;;;5.40;2.75;;;;;;;;;;5047502;28;20371;-85
2023/01/09 01:03:53;;;;;;;4.30;2.50;;;;;;;;;;5037434;28;20053;-86
2023/01/09 01:09:04;;;;;;;7.38;3.00;;;;;;;;;;5042228;28;20111;-84
2023/01/09 01:11:31;;;;;;;4.10;2.47;;;;;;;;;;5038154;28;20059;-85
2023/01/09 01:13:58;;;;;;;5.70;2.80;;;;;;;;;;5038202;28;20077;-84
2023/01/09 01:16:24;;;;;;;5.15;2.50;;;;;;;;;;5038266;28;20060;-84
2023/01/09 01:18:51;;;;;;;4.93;2.30;;;;;;;;;;5037982;28;20053;-84
2023/01/09 01:21:17;;;;;;;4.20;2.10;;;;;;;;;;5037763;28;20057;-85
2023/01/09 01:23:44;;;;;;;4.60;2.40;;;;;;;;;;5020205;28;20136;-83
2023/01/09 01:26:12;;;;;;;4.30;2.40;;;;;;;;;;5044410;28;20117;-84
2023/01/09 01:28:39;;;;;;;3.67;2.22;;;;;;;;;;5034590;28;20056;-84
2023/01/09 01:31:06;;;;;;;4.25;2.35;;;;;;;;;;5035673;28;20064;-84
2023/01/09 01:33:34;;;;;;;5.47;2.40;;;;;;;;;;5035581;28;20503;-83
2023/01/09 01:36:02;;;;;;;4.07;2.47;;;;;;;;;;5037244;28;20049;-84
2023/01/09 01:38:28;;;;;;;3.47;1.90;;;;;;;;;;5015136;28;20042;-86
2023/01/09 01:40:55;;;;;;;4.53;2.60;;;;;;;;;;5017917;28;20045;-83
2023/01/09 01:43:22;;;;;;;6.28;2.88;;;;;;;;;;5034096;28;20045;-84
2023/01/09 01:45:48;;;;;;;6.97;3.22;;;;;;;;;;5036839;28;20128;-85
2023/01/09 01:48:16;;;;;;;5.20;3.20;;;;;;;;;;5038953;28;20192;-83
2023/01/09 01:50:45;;;;;;;5.47;3.08;;;;;;;;;;5021202;28;20111;-86
2023/01/09 01:53:20;;;;;;;8.02;3.50;;;;;;;;;;5038343;28;20053;-82
2023/01/09 01:55:47;;;;;;;;;;;;;;;;;;5040207;28;20056;-84
2023/01/09 01:58:14;;;;;;;7.70;3.35;;;;;;;;;;5022120;28;19921;-84
2023/01/09 02:00:45;;;;;;;7.60;3.95;;;;;;;;;;5021047;28;20061;-82
2023/01/09 02:03:14;;;;;;;6.88;3.67;;;;;;;;;;5018993;28;20075;-84
2023/01/09 02:05:40;;;;;;;8.98;4.20;;;;;;;;;;5045233;28;20061;-82
2023/01/09 02:08:07;;;;;;;10.38;4.07;;;;;;;;;;5015812;28;20045;-85
2023/01/09 02:10:35;;;;;;;9.43;4.35;;;;;;;;;;5035793;28;20060;-85
2023/01/09 02:13:02;;;;;;;8.18;4.20;;;;;;;;;;5035376;28;20053;-84
2023/01/09 02:15:31;;;;;;;11.48;5.05;;;;;;;;;;5035329;28;20077;-85
2023/01/09 02:18:07;;;;;;;10.10;4.93;;;;;;;;;;5043898;28;20063;-85
2023/01/09 02:20:33;;;;;;;;;;;;;;;;;;5027423;28;20057;-85
2023/01/09 02:23:18;;;;;;;8.90;4.95;;;;;;;;;;5024574;28;19921;-86
2023/01/09 02:25:57;;;;;;;9.52;4.90;;;;;;;;;;5026366;28;20469;-86
2023/01/09 02:28:32;;;;;;;10.75;5.05;;;;;;;;;;5040523;28;20638;-88
2023/01/09 02:31:09;;;;;;;10.57;5.55;;;;;;;;;;5036798;28;20045;-88
2023/01/09 02:33:39;;;;;;;12.88;5.72;;;;;;;;;;5032066;28;20132;-87
2023/01/09 02:36:11;;;;;;;15.55;6.10;;;;;;;;;;5013965;28;20061;-88
2023/01/09 02:38:55;;;;;;;14.57;6.03;;;;;;;;;;5028197;28;20132;-86
2023/01/09 02:41:41;;;;;;;12.57;5.70;;;;;;;;;;5021647;28;20053;-86
2023/01/09 02:44:15;;;;;;;13.50;6.38;;;;;;;;;;5017928;28;20509;-87
2023/01/09 02:46:41;;;;;;;10.93;6.30;;;;;;;;;;5027411;28;20081;-88
2023/01/09 02:49:08;;;;;;;13.32;6.57;;;;;;;;;;5035983;28;20060;-86
2023/01/09 02:51:35;;;;;;;15.40;6.85;;;;;;;;;;5034989;28;20100;-87
2023/01/09 02:54:05;;;;;;;12.70;6.72;;;;;;;;;;5033779;28;20046;-87
2023/01/09 02:57:04;;;;;;;14.65;7.55;;;;;;;;;;5033821;28;20053;-87
2023/01/09 02:59:30;;;;;;;14.15;7.00;;;;;;;;;;5010263;28;20067;-85
2023/01/09 03:01:57;;;;;;;14.82;6.78;;;;;;;;;;5033463;28;20391;-87
2023/01/09 03:04:26;;;;;;;16.15;7.68;;;;;;;;;;5032842;28;20081;-87
2023/01/09 03:06:57;;;;;;;14.60;7.30;;;;;;;;;;5033580;28;20498;-85
2023/01/09 03:09:26;;;;;;;16.10;7.28;;;;;;;;;;5020233;28;20109;-83
2023/01/09 03:11:56;;;;;;;14.35;7.13;;;;;;;;;;5016290;28;20075;-84
2023/01/09 03:14:24;;;;;;;15.27;7.50;;;;;;;;;;5015662;28;20688;-85
2023/01/09 03:17:00;;;;;;;13.32;6.63;;;;;;;;;;5015867;28;20136;-85
2023/01/09 03:19:29;;;;;;;15.32;7.53;;;;;;;;;;5017357;28;20137;-87
2023/01/09 03:21:56;;;;;;;15.13;7.45;;;;;;;;;;5035063;28;20045;-84
2023/01/09 03:24:22;;;;;;;14.50;6.88;;;;;;;;;;5022680;28;20181;-82
2023/01/09 03:26:49;;;;;;;16.95;7.18;;;;;;;;;;5026064;28;20068;-85
2023/01/09 03:29:15;;;;;;;18.77;7.05;;;;;;;;;;4996900;28;20257;-84
2023/01/09 03:31:42;;;;;;;13.90;6.82;;;;;;;;;;4997159;28;20042;-84
2023/01/09 03:34:08;;;;;;;16.35;7.30;;;;;;;;;;4996931;28;20053;-84
2023/01/09 03:36:34;;;;;;;12.18;6.43;;;;;;;;;;4996900;28;20060;-87
2023/01/09 03:39:01;;;;;;;12.23;6.00;;;;;;;;;;5031589;28;20127;-84
2023/01/09 03:41:27;;;;;;;12.45;6.45;;;;;;;;;;4998516;28;20122;-84
2023/01/09 03:43:54;;;;;;;11.60;6.43;;;;;;;;;;4998553;28;20057;-85
2023/01/09 03:46:20;;;;;;;12.57;6.63;;;;;;;;;;5018551;28;20268;-85
2023/01/09 03:48:47;;;;;;;12.20;6.45;;;;;;;;;;5004532;28;20068;-85
2023/01/09 03:51:13;;;;;;;14.85;6.55;;;;;;;;;;5019747;28;20168;-81
2023/01/09 03:53:40;;;;;;;16.15;7.60;;;;;;;;;;5018725;28;20084;-82
2023/01/09 03:56:06;;;;;;;13.32;6.70;;;;;;;;;;5004323;28;20049;-87
2023/01/09 03:58:33;;;;;;;14.95;6.45;;;;;;;;;;5021324;28;20058;-85
2023/01/09 04:01:00;;;;;;;12.48;6.28;;;;;;;;;;5000679;28;20045;-86
2023/01/09 04:03:27;;;;;;;14.07;6.55;;;;;;;;;;5005473;28;20105;-83
2023/01/09 04:05:53;;;;;;;13.88;6.38;;;;;;;;;;5023420;28;20054;-86
2023/01/09 04:08:20;;;;;;;15.98;6.68;;;;;;;;;;5018419;28;20054;-87
2023/01/09 04:10:47;;;;;;;13.40;5.85;;;;;;;;;;5003327;28;20060;-86
2023/01/09 04:13:14;;;;;;;11.02;5.95;;;;;;;;;;5001404;28;20112;-85
2023/01/09 04:15:40;;;;;;;11.57;5.85;;;;;;;;;;5015438;28;20149;-86
2023/01/09 04:18:07;;;;;;;13.10;6.45;;;;;;;;;;4995691;28;20081;-85
2023/01/09 04:20:33;;;;;;;11.35;6.20;;;;;;;;;;4995813;28;20042;-85
2023/01/09 04:23:00;;;;;;;15.38;6.35;;;;;;;;;;4994510;28;20428;-86
2023/01/09 04:25:26;;;;;;;13.02;5.95;;;;;;;;;;4994692;28;20052;-86
2023/01/09 04:27:52;;;;;;;12.88;6.35;;;;;;;;;;5012490;28;20046;-86
2023/01/09 04:30:19;;;;;;;12.50;5.75;;;;;;;;;;4995441;28;20069;-84
2023/01/09 04:32:45;;;;;;;10.32;5.32;;;;;;;;;;5014610;28;20081;-84
2023/01/09 04:35:12;;;;;;;11.82;5.03;;;;;;;;;;5013665;28;20058;-86
2023/01/09 04:37:38;;;;;;;10.15;4.93;;;;;;;;;;5006642;28;20076;-85
2023/01/09 04:40:07;;;;;;;9.98;4.78;;;;;;;;;;5024797;28;20136;-84
2023/01/09 04:42:34;;;;;;;11.05;5.18;;;;;;;;;;5015940;28;20165;-84
2023/01/09 04:45:00;;;;;;;11.43;4.85;;;;;;;;;;5031130;28;20406;-83
2023/01/09 04:47:27;;;;;;;10.25;5.00;;;;;;;;;;5013188;28;20046;-84
2023/01/09 04:49:53;;;;;;;13.20;5.32;;;;;;;;;;5015096;28;20085;-85
2023/01/09 04:52:20;;;;;;;9.25;4.70;;;;;;;;;;4998390;28;20045;-84
2023/01/09 04:54:46;;;;;;;8.50;4.72;;;;;;;;;;4998079;28;20056;-83
2023/01/09 04:57:12;;;;;;;13.43;4.20;;;;;;;;;;5014804;28;20056;-85
2023/01/09 04:59:39;;;;;;;9.35;4.05;;;;;;;;;;5015343;28;20475;-86
2023/01/09 05:02:05;;;;;;;8.07;4.25;;;;;;;;;;5015008;28;20228;-85
2023/01/09 05:04:32;;;;;;;8.27;3.83;;;;;;;;;;5013058;28;20451;-84
2023/01/09 05:06:58;;;;;;;9.63;4.00;;;;;;;;;;5005436;28;20083;-84
2023/01/09 05:09:25;;;;;;;8.07;4.00;;;;;;;;;;5040135;28;20163;-85
2023/01/09 05:11:51;;;;;;;7.43;3.90;;;;;;;;;;5018544;28;20525;-85
2023/01/09 05:14:18;;;;;;;7.72;3.72;;;;;;;;;;5033595;28;20080;-86
2023/01/09 05:16:44;;;;;;;7.18;3.58;;;;;;;;;;5018635;28;20053;-84
2023/01/09 05:19:11;;;;;;;6.20;3.60;;;;;;;;;;5034631;28;20053;-84
2023/01/09 05:21:37;;;;;;;7.18;3.72;;;;;;;;;;5034904;28;20069;-84
2023/01/09 05:24:03;;;;;;;6.57;3.75;;;;;;;;;;5006681;28;20057;-84
2023/01/09 05:26:30;;;;;;;8.45;4.03;;;;;;;;;;5023886;28;20049;-84
2023/01/09 05:28:57;;;;;;;10.68;3.60;;;;;;;;;;5022582;28;20137;-84
2023/01/09 05:31:24;;;;;;;6.43;3.20;;;;;;;;;;5024130;28;20168;-84
2023/01/09 05:33:51;;;;;;;6.43;3.05;;;;;;;;;;4999987;28;20047;-83
2023/01/09 05:36:18;;;;;;;6.60;3.20;;;;;;;;;;5002036;28;20045;-83
2023/01/09 05:38:44;;;;;;;5.90;2.90;;;;;;;;;;5009843;28;20051;-85
2023/01/09 05:41:11;;;;;;;6.40;3.28;;;;;;;;;;5013937;28;20052;-85
2023/01/09 05:43:37;;;;;;;4.53;2.65;;;;;;;;;;5016359;28;20045;-85
2023/01/09 05:46:04;;;;;;;5.10;3.00;;;;;;;;;;5017347;28;20054;-79
2023/01/09 05:48:30;;;;;;;5.18;3.25;;;;;;;;;;5027123;28;20103;-83
2023/01/09 05:50:56;;;;;;;4.45;2.67;;;;;;;;;;5026690;28;20041;-82
2023/01/09 05:53:23;;;;;;;7.22;3.08;;;;;;;;;;5034631;28;20083;-85
2023/01/09 05:55:49;;;;;;;5.68;2.97;;;;;;;;;;5017603;28;20525;-85
2023/01/09 05:58:16;;;;;;;5.78;2.95;;;;;;;;;;5016892;28;20153;-86
2023/01/09 06:00:42;;;;;;;5.93;2.92;;;;;;;;;;5016717;28;20065;-86
2023/01/09 06:03:09;;;;;;;5.30;3.00;;;;;;;;;;5014709;28;20057;-84
2023/01/09 06:05:35;;;;;;;4.72;2.78;;;;;;;;;;5033326;28;20077;-85
2023/01/09 06:08:02;;;;;;;5.50;2.83;;;;;;;;;;5033474;28;20045;-85
2023/01/09 06:10:28;;;;;;;5.00;3.00;;;;;;;;;;5016197;28;20045;-83
2023/01/09 06:12:54;;;;;;;5.22;2.92;;;;;;;;;;5014987;28;20084;-84
2023/01/09 06:15:21;;;;;;;6.15;3.35;;;;;;;;;;5032377;28;20418;-84
2023/01/09 06:17:47;;;;;;;5.00;2.80;;;;;;;;;;5015578;28;20061;-85
2023/01/09 06:20:14;;;;;;;4.97;2.60;;;;;;;;;;5030763;28;20068;-84
2023/01/09 06:22:40;;;;;;;5.38;2.88;;;;;;;;;;5014995;28;20053;-84
2023/01/09 06:25:07;;;;;;;4.85;3.00;;;;;;;;;;5015214;28;20045;-85
2023/01/09 06:27:33;;;;;;;5.45;3.05;;;;;;;;;;5016560;28;20117;-85
2023/01/09 06:30:00;;;;;;;5.05;3.00;;;;;;;;;;5037016;28;20068;-80
2023/01/09 06:32:26;;;;;;;5.93;2.80;;;;;;;;;;5014625;28;20648;-82
2023/01/09 06:34:52;;;;;;;5.35;2.60;;;;;;;;;;5031219;28;20111;-83
2023/01/09 06:37:19;;;;;;;5.32;2.72;;;;;;;;;;5028290;28;20073;-84
2023/01/09 06:39:45;;;;;;;5.03;2.97;;;;;;;;;;5025334;28;20488;-85
2023/01/09 06:42:12;;;;;;;4.63;2.45;;;;;;;;;;5015457;28;20060;-84
2023/01/09 06:44:38;;;;;;;4.85;2.72;;;;;;;;;;5032253;28;20188;-84
2023/01/09 06:47:05;;;;;;;5.18;2.63;;;;;;;;;;5034272;28;20133;-82
2023/01/09 06:49:31;;;;;;;4.50;2.70;;;;;;;;;;5033859;28;20052;-85
2023/01/09 06:51:57;;;;;;;6.32;2.70;;;;;;;;;;5015520;28;20104;-85
2023/01/09 06:54:24;;;;;;;4.60;2.78;;;;;;;;;;5015490;28;20477;-84
2023/01/09 06:56:53;;;;;;;4.53;2.60;;;;;;;;;;5016124;28;20091;-83
2023/01/09 06:59:20;;;;;;;4.95;2.67;;;;;;;;;;5015596;28;20057;-83
2023/01/09 07:01:46;;;;;;;4.28;2.83;;;;;;;;;;5034063;28;20111;-85
2023/01/09 07:04:13;;;;;;;4.45;2.67;;;;;;;;;;5033320;28;20130;-85
2023/01/09 07:06:39;;;;;;;7.30;2.75;;;;;;;;;;5033685;28;20088;-82
2023/01/09 07:09:06;;;;;;;5.15;2.95;;;;;;;;;;5018525;28;20050;-80
2023/01/09 07:11:32;;;;;;;4.38;2.80;;;;;;;;;;5015812;28;20061;-82
2023/01/09 07:13:59;;;;;;;6.03;3.00;;;;;;;;;;5032308;28;20792;-84
2023/01/09 07:16:25;;;;;;;5.30;2.70;;;;;;;;;;5036318;28;20064;-84
2023/01/09 07:18:53;;;;;;;4.85;3.00;;;;;;;;;;5012780;28;20056;-81
2023/01/09 07:21:20;;;;;;;6.70;3.03;;;;;;;;;;5034547;28;20661;-82
2023/01/09 07:23:46;;;;;;;5.05;3.10;;;;;;;;;;5036113;28;20064;-82
2023/01/09 07:26:12;;;;;;;5.03;2.60;;;;;;;;;;5018509;28;20137;-80
2023/01/09 07:28:39;;;;;;;4.05;2.70;;;;;;;;;;5019570;28;20045;-84
2023/01/09 07:31:06;;;;;;;3.95;2.50;;;;;;;;;;5036769;28;20391;-83
2023/01/09 07:33:33;;;;;;;5.80;2.88;;;;;;;;;;5035182;28;20052;-82
2023/01/09 07:35:59;;;;;;;4.57;2.75;;;;;;;;;;5037076;28;20117;-85
2023/01/09 07:38:26;;;;;;;5.15;2.75;;;;;;;;;;5011423;28;20383;-86
2023/01/09 07:40:52;;;;;;;3.78;2.42;;;;;;;;;;5014602;28;20269;-84
2023/01/09 07:43:19;;;;;;;4.28;2.70;;;;;;;;;;5019512;28;20049;-83
2023/01/09 07:45:45;;;;;;;4.32;2.30;;;;;;;;;;5018351;28;20485;-82
2023/01/09 07:48:12;;;;;;;4.55;2.47;;;;;;;;;;5038498;28;20423;-83
2023/01/09 07:50:38;;;;;;;6.32;2.70;;;;;;;;;;5036778;28;20060;-83
2023/01/09 07:53:04;;;;;;;5.10;2.58;;;;;;;;;;5017210;28;20057;-83
2023/01/09 07:55:31;;;;;;;5.53;2.85;;;;;;;;;;5019622;28;20079;-84
2023/01/09 07:57:57;;;;;;;6.15;3.00;;;;;;;;;;5021987;28;20103;-84
2023/01/09 08:00:24;;;;;;;4.80;2.75;;;;;;;;;;5038328;28;20056;-83
2023/01/09 08:02:51;;;;;;;4.30;2.50;;;;;;;;;;5017211;28;20053;-83
2023/01/09 08:05:18;;;;;;;4.07;2.47;;;;;;;;;;5035272;28;20088;-85
2023/01/09 08:07:44;;;;;;;5.05;2.33;;;;;;;;;;5019111;28;20057;-86
2023/01/09 08:10:11;;;;;;;4.40;2.47;;;;;;;;;;5036360;28;20057;-86
2023/01/09 08:12:41;;;;;;;4.88;2.28;;;;;;;;;;5018369;28;20051;-85
2023/01/09 08:15:07;;;;;;;4.50;2.63;;;;;;;;;;5020197;28;20660;-82
2023/01/09 08:17:34;;;;;;;5.82;2.83;;;;;;;;;;5034976;28;20478;-82
2023/01/09 08:20:00;;;;;;;4.95;2.35;;;;;;;;;;5017189;28;20046;-84
2023/01/09 08:22:26;;;;;;;4.07;2.45;;;;;;;;;;5034319;28;20061;-84
2023/01/09 08:24:53;;;;;;;4.85;2.55;;;;;;;;;;5034802;28;20769;-83
2023/01/09 08:27:19;;;;;;;4.85;2.70;;;;;;;;;;5017622;28;20061;-87
2023/01/09 08:29:46;;;;;;;4.05;2.45;;;;;;;;;;5016432;28;20076;-87
2023/01/09 08:32:12;;;;;;;4.78;2.47;;;;;;;;;;5034703;28;20068;-83
2023/01/09 08:34:39;;;;;;;4.28;2.60;;;;;;;;;;5017182;28;20045;-85
2023/01/09 08:37:05;;;;;;;5.18;2.22;;;;;;;;;;5031234;28;20049;-87
2023/01/09 08:39:32;;;;;;;5.47;2.67;;;;;;;;;;5010452;28;20402;-86
2023/01/09 08:47:32;;;;;;;6.18;2.30;;;;;;;;;;5034080;28;20045;-86
2023/01/09 08:49:59;;;;;;;3.92;2.53;;;;;;;;;;5034587;28;20049;-85
2023/01/09 08:52:25;;;;;;;4.85;2.47;;;;;;;;;;5032469;28;20470;-87
2023/01/09 08:54:51;;;;;;;3.97;2.55;;;;;;;;;;5033278;28;20041;-86
2023/01/09 08:57:18;;;;;;;4.93;2.75;;;;;;;;;;5015440;28;20136;-85
2023/01/09 08:59:45;;;;;;;7.55;3.00;;;;;;;;;;5033625;28;20049;-84
2023/01/09 09:02:11;;;;;;;4.95;2.47;;;;;;;;;;5034200;28;20485;-85
2023/01/09 09:04:37;;;;;;;3.55;2.40;;;;;;;;;;5017390;28;20049;-85
2023/01/09 09:07:04;;;;;;;5.75;2.63;;;;;;;;;;5016038;28;20595;-85
2023/01/09 09:09:30;;;;;;;3.50;2.30;;;;;;;;;;5019951;28;20271;-84
2023/01/09 09:11:57;;;;;;;4.63;2.55;;;;;;;;;;5017292;28;20053;-84
2023/01/09 09:17:09;;;;;;;3.67;2.07;;;;;;;;;;5034350;28;20049;-86
2023/01/09 09:19:35;;;;;;;3.17;2.20;;;;;;;;;;5018082;28;20925;-85
2023/01/09 09:22:02;;;;;;;4.07;2.50;;;;;;;;;;5040417;28;20105;-85
2023/01/09 09:24:28;;;;;;;4.03;2.38;;;;;;;;;;5020512;28;20204;-84
2023/01/09 09:26:54;;;;;;;2.80;1.85;;;;;;;;;;5016453;28;20049;-86
2023/01/09 09:29:21;;;;;;;4.28;2.40;;;;;;;;;;5023479;28;20067;-86
2023/01/09 09:31:47;;;;;;;4.10;2.30;;;;;;;;;;5015107;28;20053;-84
2023/01/09 09:34:14;;;;;;;4.28;2.22;;;;;;;;;;5033918;28;20049;-86
2023/01/09 09:36:40;;;;;;;3.88;2.08;;;;;;;;;;5013933;28;20056;-84
2023/01/09 09:39:08;;;;;;;6.25;2.10;;;;;;;;;;5003995;28;20510;-88
2023/01/09 09:44:52;;;;;;;5.40;2.03;;;;;;;;;;5032426;28;20165;-85
2023/01/09 09:47:27;;;;;;;2.97;2.10;;;;;;;;;;5031651;28;20049;-85
2023/01/09 09:50:05;;;;;;;3.03;1.70;;;;;;;;;;5032699;28;20057;-88
2023/01/09 09:52:31;;;;;;;3.65;2.25;;;;;;;;;;5016774;28;20057;-87
2023/01/09 09:55:01;;;;;;;6.88;2.20;;;;;;;;;;5015796;28;20054;-87
2023/01/09 09:57:36;;;;;;;4.93;2.38;;;;;;;;;;5016474;28;20107;-84
2023/01/09 10:00:04;;;;;;;5.65;2.25;;;;;;;;;;5015861;28;20077;-87
2023/01/09 10:02:46;;;;;;;4.03;2.30;;;;;;;;;;5016662;28;20065;-83
2023/01/09 10:05:29;;;;;;;7.30;2.53;;;;;;;;;;5034785;28;20085;-83
2023/01/09 10:07:59;;;;;;;2.67;1.60;;;;;;;;;;5017800;28;20042;-83
2023/01/09 10:10:50;;;;;;;4.85;1.77;;;;;;;;;;5018629;28;20058;-86
2023/01/09 10:16:02;;;;;;;3.97;1.33;;;;;;;;;;5032016;28;20064;-86
2023/01/09 10:18:31;;;;;;;3.10;1.13;;;;;;;;;;5016724;28;20045;-86
2023/01/09 10:21:05;;;;;;;2.65;1.27;;;;;;;;;;5034046;28;20068;-83
2023/01/09 10:23:31;;;;;;;1.80;0.90;;;;;;;;;;5015969;28;20506;-84
2023/01/09 10:26:05;;;;;;;1.63;0.70;;;;;;;;;;5016403;28;20057;-81
2023/01/09 10:28:51;;;;;;;1.00;0.70;;;;;;;;;;5017176;28;20617;-85
2023/01/09 10:31:31;;;;;;;0.82;0.47;;;;;;;;;;5016449;28;20336;-84
2023/01/09 10:34:03;;;;;;;0.80;0.55;;;;;;;;;;5034379;28;20518;-83
2023/01/09 10:36:32;;;;;;;2.90;0.50;;;;;;;;;;5032717;28;20084;-85
2023/01/09 10:39:03;;;;;;;1.25;0.57;;;;;;;;;;5022856;28;20049;-86
2023/01/09 10:41:36;;;;;;;2.35;0.32;;;;;;;;;;4996423;28;20066;-84
2023/01/09 10:44:06;;;;;;;1.02;0.40;;;;;;;;;;5025710;28;20052;-88
2023/01/09 10:46:36;;;;;;;1.52;0.43;;;;;;;;;;5012858;28;20081;-87
2023/01/09 10:49:10;;;;;;;0.85;0.50;;;;;;;;;;4996037;28;20050;-86
2023/01/09 10:51:42;;;;;;;0.80;0.40;;;;;;;;;;4996165;28;20061;-84
2023/01/09 10:54:14;;;;;;;3.67;0.40;;;;;;;;;;5017065;28;20160;-83
2023/01/09 10:56:43;;;;;;;1.00;0.40;;;;;;;;;;5005319;28;20054;-83
2023/01/09 10:59:10;;;;;;;1.02;0.45;;;;;;;;;;5015274;28;20041;-83
2023/01/09 11:01:38;;;;;;;0.93;0.38;;;;;;;;;;5001710;28;20046;-85
2023/01/09 11:04:28;;;;;;;1.75;0.57;;;;;;;;;;4996891;28;20052;-84
2023/01/09 11:07:17;;;;;;;2.15;0.63;;;;;;;;;;5000837;28;20041;-83
2023/01/09 11:10:00;;;;;;;2.22;0.70;;;;;;;;;;5000010;28;20104;-85
2023/01/09 11:12:28;;;;;;;1.88;0.60;;;;;;;;;;5005458;28;20092;-83
2023/01/09 11:14:55;;;;;;;1.35;0.50;;;;;;;;;;5002311;28;20073;-86
2023/01/09 11:17:25;;;;;;;0.90;0.50;;;;;;;;;;5016280;28;20136;-86
2023/01/09 11:20:05;;;;;;;0.20;0.20;;;;;;;;;;4997631;28;20080;-84
2023/01/09 11:23:01;;;;;;;1.15;0.30;;;;;;;;;;5004963;28;20058;-85
2023/01/09 11:25:27;;;;;;;1.02;0.40;;;;;;;;;;4992228;28;20050;-87
2023/01/09 11:28:05;;;;;;;1.27;0.57;;;;;;;;;;4995507;28;20054;-87
2023/01/09 11:30:35;;;;;;;0.73;0.40;;;;;;;;;;5014322;28;20089;-86
2023/01/09 11:33:23;;;;;;;0.50;0.30;;;;;;;;;;5012524;28;20141;-86
2023/01/09 11:35:55;;;;;;;1.48;0.43;;;;;;;;;;5014198;28;20053;-86
2023/01/09 11:38:21;;;;;;;0.80;0.40;;;;;;;;;;5011352;28;20050;-85
2023/01/09 11:40:49;;;;;;;1.90;0.50;;;;;;;;;;5016468;28;20060;-86
2023/01/09 11:43:29;;;;;;;2.08;0.60;;;;;;;;;;5016804;28;20165;-85
2023/01/09 11:45:57;;;;;;;1.02;0.40;;;;;;;;;;5014986;28;20092;-84
2023/01/09 11:48:28;;;;;;;0.70;0.30;;;;;;;;;;5016143;28;20497;-88
2023/01/09 11:50:56;;;;;;;0.68;0.40;;;;;;;;;;5016235;28;20052;-86
2023/01/09 11:53:23;;;;;;;2.70;0.55;;;;;;;;;;5016419;28;20049;-87
2023/01/09 11:56:00;;;;;;;0.80;0.40;;;;;;;;;;5042191;28;20125;-86
2023/01/09 11:58:31;;;;;;;0.73;0.40;;;;;;;;;;5023339;28;20064;-85
2023/01/09 12:01:09;;;;;;;0.57;0.30;;;;;;;;;;5033052;28;20050;-84
2023/01/09 12:03:54;;;;;;;0.95;0.40;;;;;;;;;;5041937;28;20088;-86
2023/01/09 12:06:28;;;;;;;0.25;0.13;;;;;;;;;;5014871;28;20088;-89
2023/01/09 12:08:58;;;;;;;0.32;0.28;;;;;;;;;;5034906;28;20487;-86
2023/01/09 12:11:25;;;;;;;0.85;0.32;;;;;;;;;;5033091;28;20049;-87
2023/01/09 12:13:51;;;;;;;0.70;0.20;;;;;;;;;;5035653;28;20042;-85
2023/01/09 12:16:17;;;;;;;0.85;0.30;;;;;;;;;;5034983;28;20057;-86
2023/01/09 12:18:46;;;;;;;1.17;0.30;;;;;;;;;;5017429;28;20091;-87
2023/01/09 12:21:13;;;;;;;1.95;0.40;;;;;;;;;;5017620;28;20636;-87
2023/01/09 12:23:41;;;;;;;0.90;0.30;;;;;;;;;;5016983;28;20560;-86
2023/01/09 12:26:14;;;;;;;1.17;0.50;;;;;;;;;;5016308;28;20049;-89
2023/01/09 12:28:46;;;;;;;1.52;0.52;;;;;;;;;;5018549;28;20050;-88
2023/01/09 12:31:13;;;;;;;1.27;0.40;;;;;;;;;;5036016;28;20064;-86
2023/01/09 12:33:39;;;;;;;1.17;0.30;;;;;;;;;;5033798;28;20584;-86
2023/01/09 12:36:06;;;;;;;1.83;0.60;;;;;;;;;;5017212;28;20064;-89
2023/01/09 12:38:39;;;;;;;2.15;0.38;;;;;;;;;;5000657;28;20137;-89
2023/01/09 12:41:06;;;;;;;1.00;0.30;;;;;;;;;;4997509;28;20125;-88
2023/01/09 12:43:39;;;;;;;2.83;0.40;;;;;;;;;;5023118;28;20069;-90
2023/01/09 12:46:17;;;;;;;1.73;0.50;;;;;;;;;;4997402;28;20054;-90
2023/01/09 12:48:55;;;;;;;1.08;0.30;;;;;;;;;;4998463;28;20128;-89
2023/01/09 12:51:29;;;;;;;2.92;0.50;;;;;;;;;;4997303;28;20064;-88
2023/01/09 12:54:09;;;;;;;2.50;0.32;;;;;;;;;;5000816;28;20049;-88
2023/01/09 12:56:37;;;;;;;1.42;0.40;;;;;;;;;;5008082;28;20049;-88
2023/01/09 12:59:29;;;;;;;1.10;0.30;;;;;;;;;;5015811;28;20054;-90
2023/01/09 13:02:07;;;;;;;2.08;0.50;;;;;;;;;;5006702;28;20108;-88
2023/01/09 13:04:38;;;;;;;1.98;0.63;;;;;;;;;;5000492;28;20058;-89
2023/01/09 13:07:08;;;;;;;2.03;0.45;;;;;;;;;;4997888;28;20105;-86
2023/01/09 13:09:46;;;;;;;1.52;0.47;;;;;;;;;;4999825;28;20123;-86
2023/01/09 13:12:14;;;;;;;0.70;0.30;;;;;;;;;;5020839;28;20145;-89
2023/01/09 13:14:59;;;;;;;1.85;0.50;;;;;;;;;;5014733;28;20045;-88
2023/01/09 13:17:39;;;;;;;1.30;0.53;;;;;;;;;;4997766;28;20060;-90
2023/01/09 13:20:14;;;;;;;2.08;0.57;;;;;;;;;;4997962;28;20313;-90
2023/01/09 13:22:46;;;;;;;1.52;0.60;;;;;;;;;;5004532;28;20100;-89
2023/01/09 13:25:19;;;;;;;4.03;0.40;;;;;;;;;;5014491;28;20388;-88
2023/01/09 13:27:51;;;;;;;0.93;0.50;;;;;;;;;;4997065;28;20069;-88
2023/01/09 13:30:17;;;;;;;2.90;0.60;;;;;;;;;;4997517;28;20046;-90
2023/01/09 13:32:57;;;;;;;0.77;0.40;;;;;;;;;;5000355;28;20140;-90
2023/01/09 13:35:23;;;;;;;0.45;0.30;;;;;;;;;;5000615;28;20046;-87
2023/01/09 13:37:51;;;;;;;0.65;0.40;;;;;;;;;;4998764;28;20049;-89
2023/01/09 13:40:20;;;;;;;2.03;0.40;;;;;;;;;;5016610;28;20053;-90
2023/01/09 13:43:03;;;;;;;0.50;0.30;;;;;;;;;;5016532;28;20091;-88
2023/01/09 13:45:31;;;;;;;1.63;0.50;;;;;;;;;;5031953;28;20065;-88
2023/01/09 13:48:18;;;;;;;2.72;0.45;;;;;;;;;;5015554;28;20045;-88
2023/01/09 13:50:46;;;;;;;1.50;0.50;;;;;;;;;;5018991;28;20052;-90
2023/01/09 13:53:19;;;;;;;1.13;0.45;;;;;;;;;;4994411;28;20064;-88
2023/01/09 13:55:58;;;;;;;4.50;0.82;;;;;;;;;;4994756;28;20651;-87
2023/01/09 13:58:25;;;;;;;4.03;0.68;;;;;;;;;;4996229;28;20049;-87
2023/01/09 14:00:53;;;;;;;1.42;0.38;;;;;;;;;;5014354;28;20046;-88
2023/01/09 14:03:21;;;;;;;2.88;0.50;;;;;;;;;;5001426;28;20652;-86
2023/01/09 14:05:48;;;;;;;3.33;0.82;;;;;;;;;;5015285;28;20054;-88
2023/01/09 14:08:20;;;;;;;3.80;0.50;;;;;;;;;;4995574;28;20046;-86
2023/01/09 14:10:51;;;;;;;2.22;0.93;;;;;;;;;;5014105;28;20070;-88
2023/01/09 14:13:17;;;;;;;2.22;0.60;;;;;;;;;;4995218;28;20089;-86
2023/01/09 14:15:45;;;;;;;3.22;0.80;;;;;;;;;;4999470;28;20455;-86
2023/01/09 14:18:22;;;;;;;0.95;0.50;;;;;;;;;;4997832;28;20510;-85
2023/01/09 14:20:57;;;;;;;2.95;0.75;;;;;;;;;;5021608;28;20060;-87
2023/01/09 14:23:27;;;;;;;2.55;0.52;;;;;;;;;;5002802;28;20064;-86
2023/01/09 14:26:25;;;;;;;5.18;0.80;;;;;;;;;;5012049;28;20053;-87
2023/01/09 14:29:11;;;;;;;1.77;0.57;;;;;;;;;;5033258;28;20473;-84
2023/01/09 14:31:38;;;;;;;1.17;0.50;;;;;;;;;;5006942;28;20483;-87
2023/01/09 14:34:31;;;;;;;1.25;0.60;;;;;;;;;;5004027;28;20049;-87
2023/01/09 14:36:58;;;;;;;1.52;0.50;;;;;;;;;;5025260;28;20053;-86
2023/01/09 14:39:25;;;;;;;3.78;0.70;;;;;;;;;;5008259;28;20529;-84
2023/01/09 14:42:01;;;;;;;0.77;0.40;;;;;;;;;;5013373;28;20056;-86
2023/01/09 14:44:27;;;;;;;3.10;0.50;;;;;;;;;;5013042;28;20044;-86
2023/01/09 14:46:56;;;;;;;1.58;0.63;;;;;;;;;;5007352;28;20050;-88
2023/01/09 14:49:34;;;;;;;4.57;0.50;;;;;;;;;;5021619;28;20054;-87
2023/01/09 14:52:06;;;;;;;3.63;0.50;;;;;;;;;;5023063;28;20104;-86
2023/01/09 14:54:36;;;;;;;5.85;0.80;;;;;;;;;;5023900;28;20055;-86
2023/01/09 14:57:21;;;;;;;5.03;0.65;;;;;;;;;;5007754;28;20109;-88
2023/01/09 14:59:58;;;;;;;3.78;0.50;;;;;;;;;;5023285;28;20069;-86
2023/01/09 15:02:26;;;;;;;1.80;0.93;;;;;;;;;;5024565;28;20049;-87
2023/01/09 15:04:55;;;;;;;2.00;0.60;;;;;;;;;;5025158;28;20336;-86
2023/01/09 15:07:29;;;;;;;2.20;0.73;;;;;;;;;;5025927;28;20124;-88
2023/01/09 15:09:59;;;;;;;1.88;0.50;;;;;;;;;;5023465;28;20050;-86